createdAt,value
2019-02-05T05:58:23.105Z,17.67
2019-02-05T06:06:00.704Z,18.00
2019-02-05T06:08:32.674Z,15.03
2019-02-05T06:12:16.452Z,46.33
2019-02-05T06:14:47.635Z,17.27
2019-02-05T06:17:18.576Z,19.32
2019-02-05T06:19:49.426Z,21.90
2019-02-05T06:22:20.141Z,18.77
2019-02-05T06:24:51.230Z,22.37
2019-02-05T06:27:22.190Z,22.93
2019-02-05T06:29:53.353Z,20.50
2019-02-05T06:32:24.276Z,20.73
2019-02-05T06:34:55.370Z,22.07
2019-02-05T06:37:26.312Z,22.83
2019-02-05T06:39:57.025Z,23.00
2019-02-05T06:42:27.777Z,20.00
2019-02-05T06:44:58.550Z,23.20
2019-02-05T06:47:29.429Z,22.40
2019-02-05T06:50:00.318Z,22.27
2019-02-05T06:52:31.103Z,22.97
2019-02-05T06:55:01.829Z,24.40
2019-02-05T06:57:33.114Z,24.07
2019-02-05T07:00:06.079Z,23.20
2019-02-05T07:02:36.858Z,58.27
2019-02-05T07:08:34.009Z,21.23
2019-02-05T07:11:05.267Z,23.20
2019-02-05T07:43:11.460Z,27.45
2019-02-05T07:45:42.380Z,31.33
2019-02-05T07:48:13.327Z,26.68
2019-02-05T07:50:44.992Z,28.13
2019-02-05T07:53:15.932Z,26.50
2019-02-05T07:55:46.827Z,26.83
2019-02-05T07:58:17.908Z,26.87
2019-02-05T08:00:48.873Z,27.97
2019-02-05T08:03:19.803Z,33.63
2019-02-05T08:05:50.731Z,28.57
2019-02-05T08:08:21.934Z,32.07
2019-02-05T08:10:52.837Z,31.63
2019-02-05T08:13:23.823Z,28.90
2019-02-05T08:15:54.725Z,27.60
2019-02-05T08:18:25.674Z,29.37
2019-02-05T08:20:56.579Z,31.53
2019-02-05T08:23:27.857Z,28.60
2019-02-05T08:25:58.762Z,32.17
2019-02-05T08:28:40.421Z,24.20
2019-02-05T08:31:02.306Z,27.17
2019-02-05T08:33:33.446Z,30.57
2019-02-05T08:36:04.858Z,41.60
2019-02-05T08:38:35.783Z,34.53
2019-02-05T08:41:06.692Z,32.90
2019-02-05T08:43:39.246Z,34.13
2019-02-05T08:46:10.147Z,33.87
2019-02-05T08:48:41.129Z,28.50
2019-02-05T08:51:12.311Z,28.10
2019-02-05T08:53:43.243Z,30.30
2019-02-05T08:56:14.143Z,32.67
2019-02-05T08:58:45.213Z,28.03
2019-02-05T09:01:16.184Z,45.90
2019-02-05T09:03:47.123Z,22.40
2019-02-05T09:06:18.300Z,24.70
2019-02-05T09:08:49.234Z,35.27
2019-02-05T09:11:20.144Z,32.33
2019-02-05T09:13:51.384Z,32.60
2019-02-05T09:16:26.189Z,36.97
2019-02-05T09:18:57.517Z,23.20
2019-02-05T09:21:28.528Z,30.07
2019-02-05T09:24:00.298Z,34.50
2019-02-05T09:26:31.248Z,32.47
2019-02-05T09:29:02.360Z,36.97
2019-02-05T09:31:33.292Z,27.03
2019-02-05T09:34:04.822Z,35.30
2019-02-05T09:36:35.795Z,31.83
2019-02-05T09:39:08.155Z,21.50
2019-02-05T09:41:39.096Z,26.47
2019-02-05T09:44:10.097Z,34.27
2019-02-05T09:46:40.995Z,26.33
2019-02-05T09:49:11.933Z,30.77
2019-02-05T09:51:42.945Z,29.37
2019-02-05T09:54:13.865Z,30.33
2019-02-05T09:57:27.986Z,25.83
2019-02-05T10:00:23.235Z,27.77
2019-02-05T10:02:55.285Z,27.73
2019-02-05T10:05:28.679Z,37.07
2019-02-05T10:07:59.622Z,36.87
2019-02-05T10:10:30.558Z,32.37
2019-02-05T10:13:01.500Z,30.70
2019-02-05T10:15:34.828Z,36.10
2019-02-05T10:18:07.735Z,33.70
2019-02-05T10:20:38.683Z,38.83
2019-02-05T10:23:10.407Z,31.23
2019-02-05T10:25:41.424Z,35.20
2019-02-05T10:28:12.328Z,47.07
2019-02-05T10:30:44.612Z,45.33
2019-02-05T10:33:15.521Z,40.57
2019-02-05T10:35:46.552Z,34.33
2019-02-05T10:38:17.462Z,33.70
2019-02-05T10:40:48.396Z,26.67
2019-02-05T10:43:19.410Z,32.40
2019-02-05T10:45:51.084Z,45.00
2019-02-05T10:48:22.007Z,35.43
2019-02-05T10:50:53.053Z,31.73
2019-02-05T10:53:23.951Z,26.13
2019-02-05T10:55:54.885Z,42.33
2019-02-05T10:58:25.792Z,46.27
2019-02-05T11:00:57.109Z,73.17
2019-02-05T11:03:28.011Z,141.73
2019-02-05T11:05:58.962Z,156.00
2019-02-05T11:08:30.016Z,50.60
2019-02-05T11:11:01.024Z,35.83
2019-02-05T11:13:32.211Z,42.80
2019-02-05T11:16:03.246Z,31.50
2019-02-05T11:18:34.150Z,32.43
2019-02-05T11:21:05.093Z,25.27
2019-02-05T11:23:36.012Z,23.77
2019-02-05T11:26:07.013Z,28.17
2019-02-05T11:28:38.213Z,27.13
2019-02-05T11:31:09.151Z,28.47
2019-02-05T11:33:40.064Z,23.60
2019-02-05T11:36:11.032Z,35.40
2019-02-05T11:38:41.989Z,43.93
2019-02-05T11:41:13.726Z,42.47
2019-02-05T11:43:44.804Z,27.67
2019-02-05T11:46:15.752Z,38.70
2019-02-05T11:48:46.724Z,53.37
2019-02-05T11:51:17.656Z,28.43
2019-02-05T11:53:48.562Z,30.33
2019-02-05T11:56:19.514Z,35.60
2019-02-05T11:58:50.417Z,39.10
2019-02-05T12:01:21.529Z,25.20
2019-02-05T12:03:52.442Z,23.37
2019-02-05T12:06:32.030Z,28.73
2019-02-05T12:09:06.030Z,29.83
2019-02-05T12:11:36.966Z,23.17
2019-02-05T12:14:07.908Z,33.30
2019-02-05T12:16:38.915Z,22.93
2019-02-05T12:19:09.858Z,105.77
2019-02-05T12:21:40.841Z,76.70
2019-02-05T12:24:11.948Z,39.07
2019-02-05T12:26:42.904Z,23.37
2019-02-05T12:29:13.907Z,24.40
2019-02-05T12:31:45.000Z,28.03
2019-02-05T12:34:15.934Z,23.80
2019-02-05T12:36:46.922Z,29.17
2019-02-05T12:39:18.650Z,31.10
2019-02-05T12:41:49.686Z,34.60
2019-02-05T12:44:20.585Z,31.80
2019-02-05T12:46:51.566Z,24.83
2019-02-05T12:49:22.539Z,23.97
2019-02-05T12:51:53.561Z,27.40
2019-02-05T12:54:24.471Z,27.77
2019-02-05T12:56:55.398Z,33.03
2019-02-05T12:59:26.306Z,28.73
2019-02-05T13:01:57.673Z,23.63
2019-02-05T13:04:28.675Z,54.93
2019-02-05T13:06:59.789Z,31.70
2019-02-05T13:09:30.699Z,24.87
2019-02-05T13:12:01.700Z,28.03
2019-02-05T13:14:32.607Z,44.17
2019-02-05T13:17:03.572Z,31.83
2019-02-05T13:19:34.762Z,39.53
2019-02-05T13:22:05.690Z,29.13
2019-02-05T13:24:36.591Z,57.90
2019-02-05T13:27:07.528Z,67.03
2019-02-05T13:29:38.427Z,60.63
2019-02-05T13:32:09.553Z,73.03
2019-02-05T13:34:40.454Z,95.20
2019-02-05T13:37:11.529Z,170.40
2019-02-05T13:39:42.443Z,102.77
2019-02-05T13:42:13.377Z,70.87
2019-02-05T13:44:44.764Z,127.90
2019-02-05T13:47:15.743Z,172.50
2019-02-05T13:49:46.660Z,131.00
2019-02-05T13:52:17.599Z,165.13
2019-02-05T13:54:48.511Z,86.43
2019-02-05T13:57:19.452Z,39.43
2019-02-05T13:59:50.359Z,71.73
2019-02-05T14:02:21.316Z,74.97
2019-02-05T14:04:52.218Z,32.43
2019-02-05T14:07:23.228Z,63.03
2019-02-05T14:09:54.121Z,54.63
2019-02-05T14:12:25.333Z,76.30
2019-02-05T14:14:56.251Z,104.67
2019-02-05T14:17:27.254Z,145.10
2019-02-05T14:19:58.158Z,48.13
2019-02-05T14:22:29.093Z,36.73
2019-02-05T14:25:00.477Z,43.37
2019-02-05T14:27:31.416Z,46.93
2019-02-05T14:30:02.380Z,34.97
2019-02-05T14:32:33.378Z,35.10
2019-02-05T14:35:06.476Z,60.43
2019-02-05T14:37:37.418Z,213.67
2019-02-05T14:40:11.311Z,52.80
2019-02-05T14:42:43.217Z,60.20
2019-02-05T14:45:15.103Z,48.13
2019-02-05T14:47:46.057Z,98.17
2019-02-05T14:50:25.504Z,61.13
2019-02-05T14:52:56.428Z,71.93
2019-02-05T14:55:27.457Z,64.10
2019-02-05T14:57:58.392Z,32.40
2019-02-05T15:00:35.483Z,72.40
2019-02-05T15:03:08.822Z,73.13
2019-02-05T15:05:40.325Z,65.50
2019-02-05T15:08:12.160Z,60.63
2019-02-05T15:10:43.055Z,36.20
2019-02-05T15:13:16.095Z,33.23
2019-02-05T15:15:46.809Z,25.73
2019-02-05T15:18:17.778Z,26.53
2019-02-05T15:20:49.179Z,39.97
2019-02-05T15:23:20.508Z,32.70
2019-02-05T15:25:51.412Z,39.50
2019-02-05T15:28:22.350Z,93.90
2019-02-05T15:30:53.334Z,80.07
2019-02-05T15:33:26.098Z,59.47
2019-02-05T15:35:58.641Z,58.83
2019-02-05T15:38:30.096Z,33.33
2019-02-05T15:41:01.023Z,45.00
2019-02-05T15:43:31.972Z,44.80
2019-02-05T15:46:02.999Z,45.17
2019-02-05T15:48:34.125Z,42.07
2019-02-05T15:51:05.158Z,48.03
2019-02-05T15:53:36.121Z,48.17
2019-02-05T15:56:07.198Z,49.47
2019-02-05T15:58:38.197Z,73.13
2019-02-05T16:01:09.130Z,57.93
2019-02-05T16:03:40.190Z,89.03
2019-02-05T16:06:11.097Z,41.67
2019-02-05T16:08:42.107Z,26.63
2019-02-05T16:11:13.008Z,24.07
2019-02-05T16:13:43.931Z,24.83
2019-02-05T16:16:14.939Z,34.23
2019-02-05T16:18:46.273Z,29.80
2019-02-05T16:21:17.183Z,22.10
2019-02-05T16:23:48.116Z,27.30
2019-02-05T16:26:19.024Z,99.67
2019-02-05T16:28:49.969Z,86.77
2019-02-05T16:31:20.853Z,105.33
2019-02-05T16:33:51.828Z,77.40
2019-02-05T16:36:22.728Z,54.10
2019-02-05T16:38:53.692Z,51.27
2019-02-05T16:41:24.607Z,31.93
2019-02-05T16:43:55.534Z,34.77
2019-02-05T16:46:26.454Z,38.70
2019-02-05T16:48:57.497Z,49.17
2019-02-05T16:51:28.396Z,58.77
2019-02-05T16:53:59.333Z,33.57
2019-02-05T16:56:30.243Z,63.97
2019-02-05T16:59:01.446Z,46.87
2019-02-05T17:01:32.360Z,56.23
2019-02-05T17:04:03.312Z,52.63
2019-02-05T17:06:34.219Z,48.47
2019-02-05T17:09:08.062Z,27.90
2019-02-05T17:11:39.234Z,67.40
2019-02-05T17:14:10.168Z,55.77
2019-02-05T17:16:41.140Z,29.57
2019-02-05T17:19:12.098Z,30.00
2019-02-05T17:21:43.014Z,84.50
2019-02-05T17:24:14.405Z,30.47
2019-02-05T17:26:45.302Z,42.23
2019-02-05T17:29:16.246Z,54.73
2019-02-05T17:31:47.160Z,65.47
2019-02-05T17:34:18.102Z,91.77
2019-02-05T17:36:49.115Z,74.73
2019-02-05T17:39:20.251Z,56.33
2019-02-05T17:41:51.321Z,48.93
2019-02-05T17:44:22.330Z,58.73
2019-02-05T17:46:53.318Z,36.97
2019-02-05T17:49:24.380Z,39.33
2019-02-05T17:51:55.661Z,23.97
2019-02-05T17:54:26.594Z,24.27
2019-02-05T17:56:58.494Z,21.30
2019-02-05T17:59:29.458Z,22.43
2019-02-05T18:02:00.643Z,21.97
2019-02-05T18:04:32.027Z,20.90
2019-02-05T18:07:06.599Z,29.20
2019-02-05T18:09:37.549Z,23.83
2019-02-05T18:12:08.451Z,29.63
2019-02-05T18:14:39.376Z,28.30
2019-02-05T18:17:10.620Z,32.27
2019-02-05T18:19:41.680Z,44.47
2019-02-05T18:22:12.590Z,51.13
2019-02-05T18:24:43.537Z,134.97
2019-02-05T18:27:14.446Z,129.53
2019-02-05T18:29:45.942Z,79.57
2019-02-05T18:32:16.846Z,68.53
2019-02-05T18:34:47.804Z,52.37
2019-02-05T18:37:18.707Z,39.23
2019-02-05T18:39:50.109Z,58.57
2019-02-05T18:42:21.026Z,87.00
2019-02-05T18:44:51.957Z,37.50
2019-02-05T18:47:22.868Z,32.87
2019-02-05T18:49:54.275Z,51.27
2019-02-05T18:52:25.254Z,45.43
2019-02-05T18:54:56.181Z,75.60
2019-02-05T18:57:27.163Z,44.83
2019-02-05T19:03:43.397Z,54.07
2019-02-05T19:06:14.336Z,37.20
2019-02-05T19:08:45.243Z,38.23
2019-02-05T19:11:16.173Z,35.13
2019-02-05T19:13:47.089Z,37.00
2019-02-05T19:16:18.022Z,33.67
2019-02-05T19:18:48.932Z,38.20
2019-02-05T19:21:19.873Z,26.50
2019-02-05T19:23:52.700Z,30.50
2019-02-05T19:26:24.096Z,34.53
2019-02-05T19:28:55.065Z,28.13
2019-02-05T19:31:27.771Z,27.63
2019-02-05T19:33:58.680Z,30.57
2019-02-05T19:36:30.033Z,26.50
2019-02-05T19:39:00.936Z,41.27
2019-02-05T19:41:31.858Z,29.03
2019-02-05T19:44:02.774Z,36.53
2019-02-05T19:46:41.508Z,44.97
2019-02-05T19:49:23.288Z,26.00
2019-02-05T19:51:54.226Z,27.47
2019-02-05T19:54:25.421Z,32.10
2019-02-05T19:56:56.342Z,30.10
2019-02-05T19:59:28.454Z,39.17
2019-02-05T20:01:59.446Z,31.03
2019-02-05T20:04:30.371Z,31.50
2019-02-05T20:07:01.336Z,31.63
2019-02-05T20:09:32.243Z,25.60
2019-02-05T20:12:03.186Z,32.40
2019-02-05T20:14:34.086Z,57.13
2019-02-05T20:17:05.604Z,49.27
2019-02-05T20:19:36.528Z,43.73
2019-02-05T20:22:07.485Z,39.43
2019-02-05T20:24:56.248Z,44.07
2019-02-05T20:27:35.484Z,31.80
2019-02-05T20:30:09.430Z,35.50
2019-02-05T20:32:40.369Z,42.60
2019-02-05T20:35:11.387Z,55.90
2019-02-05T20:37:42.442Z,30.30
2019-02-05T20:40:27.697Z,36.70
2019-02-05T20:42:58.666Z,39.97
2019-02-05T20:45:29.698Z,44.33
2019-02-05T20:48:00.659Z,34.90
2019-02-05T20:50:31.674Z,38.10
2019-02-05T20:53:13.081Z,31.30
2019-02-05T20:55:35.284Z,35.87
2019-02-05T20:58:06.605Z,35.20
2019-02-05T21:00:37.522Z,43.53
2019-02-05T21:03:08.461Z,29.93
2019-02-05T21:05:39.637Z,33.23
2019-02-05T21:08:10.601Z,36.03
2019-02-05T21:10:43.568Z,40.80
2019-02-05T21:13:14.525Z,30.77
2019-02-05T21:15:45.433Z,45.87
2019-02-05T21:18:17.519Z,24.87
2019-02-05T21:20:48.725Z,26.13
2019-02-05T21:23:20.113Z,31.73
2019-02-05T21:25:51.030Z,31.33
2019-02-05T21:28:22.017Z,24.80
2019-02-05T21:30:52.921Z,28.93
2019-02-05T21:33:24.139Z,25.73
2019-02-05T21:35:55.107Z,28.23
2019-02-05T21:38:26.065Z,25.20
2019-02-05T21:40:56.966Z,21.70
2019-02-05T21:43:27.914Z,25.40
2019-02-05T21:46:00.906Z,28.17
2019-02-05T21:48:31.459Z,22.50
2019-02-05T21:51:05.429Z,29.53
2019-02-05T21:53:36.403Z,20.70
2019-02-05T21:56:07.303Z,24.67
2019-02-05T21:58:38.254Z,20.03
2019-02-05T22:01:09.673Z,23.30
2019-02-05T22:03:40.664Z,25.43
2019-02-05T22:06:11.572Z,24.33
2019-02-05T22:08:42.566Z,21.90
2019-02-05T22:11:13.520Z,23.80
2019-02-05T22:13:44.474Z,20.30
2019-02-05T22:16:15.385Z,23.30
2019-02-05T22:18:46.324Z,18.00
2019-02-05T22:21:17.715Z,20.33
2019-02-05T22:23:48.654Z,19.00
2019-02-05T22:26:19.559Z,23.30
2019-02-05T22:28:50.493Z,15.87
2019-02-05T22:31:25.807Z,18.27
2019-02-05T22:33:57.098Z,19.93
2019-02-05T22:36:43.254Z,15.90
2019-02-05T22:39:15.684Z,16.70
2019-02-05T22:45:31.922Z,19.63
2019-02-05T22:48:02.815Z,19.80
2019-02-05T22:50:35.549Z,28.37
2019-02-05T22:53:08.667Z,24.33
2019-02-05T22:55:39.626Z,23.30
2019-02-05T22:58:10.603Z,26.27
2019-02-05T23:00:51.433Z,32.40
2019-02-05T23:03:32.215Z,27.33
2019-02-05T23:06:21.616Z,31.17
2019-02-05T23:08:53.427Z,27.00
2019-02-05T23:11:32.867Z,25.57
2019-02-05T23:14:03.851Z,23.03
2019-02-05T23:16:34.795Z,27.63
2019-02-05T23:22:53.547Z,25.43
2019-02-05T23:25:25.034Z,19.57
2019-02-05T23:27:56.021Z,22.77
2019-02-05T23:30:27.016Z,23.83
2019-02-05T23:32:57.975Z,20.83
2019-02-05T23:35:29.161Z,21.53
2019-02-05T23:38:00.245Z,21.60
2019-02-05T23:40:33.026Z,19.03
2019-02-05T23:46:01.928Z,17.50
2019-02-05T23:48:32.971Z,15.80
2019-02-05T23:51:04.092Z,18.67
2019-02-05T23:53:35.080Z,19.10
2019-02-05T23:56:25.896Z,17.23
2019-02-05T23:58:48.791Z,22.53
